Time;durP1;ratioP1;P1;durP2;ratioP2;P2;SDS_P1;SDS_P2;PMS_P1;PMS_P2;Temp;Humidity;BMP_temperature;BMP_pressure;BME280_temperature;BME280_humidity;BME280_pressure;Samples;Min_cycle;Max_cycle;Signal;HPM_P1;HPM_P2
2023/10/08 00:02:25;;;;;;;0.80;0.80;;;16.10;99.90;;;;;;7394728;19;20135;-84
2023/10/08 00:04:57;;;;;;;1.55;0.82;;;16.20;99.90;;;;;;7394017;19;20134;-83
2023/10/08 00:07:27;;;;;;;1.67;1.20;;;16.40;99.90;;;;;;7394156;19;20153;-84
2023/10/08 00:09:53;;;;;;;1.95;1.35;;;16.40;99.90;;;;;;7391092;19;20600;-81
2023/10/08 00:12:20;;;;;;;2.05;1.25;;;16.60;99.90;;;;;;7394760;19;20160;-84
2023/10/08 00:14:49;;;;;;;1.45;0.98;;;16.40;99.90;;;;;;7392468;19;20210;-81
2023/10/08 00:17:17;;;;;;;1.00;0.60;;;16.30;99.90;;;;;;7392354;19;20138;-83
2023/10/08 00:19:43;;;;;;;2.85;1.40;;;16.30;99.90;;;;;;7390569;19;21031;-83
2023/10/08 00:22:18;;;;;;;2.08;1.10;;;16.50;99.90;;;;;;7392157;19;20598;-83
2023/10/08 00:24:46;;;;;;;1.73;1.10;;;16.40;99.90;;;;;;7392549;19;20552;-83
2023/10/08 00:27:14;;;;;;;2.88;1.13;;;16.30;99.90;;;;;;7393628;19;20135;-83
2023/10/08 00:29:43;;;;;;;2.33;1.25;;;16.50;99.90;;;;;;7393021;19;20150;-83
2023/10/08 00:32:12;;;;;;;1.25;0.85;;;16.50;99.90;;;;;;7390904;19;20146;-83
2023/10/08 00:34:44;;;;;;;2.83;0.93;;;16.50;99.90;;;;;;7392122;19;20150;-83
2023/10/08 00:37:14;;;;;;;2.88;1.40;;;16.50;99.90;;;;;;7388915;19;20177;-83
2023/10/08 00:39:41;;;;;;;2.42;1.30;;;16.30;99.90;;;;;;7391276;19;20146;-82
2023/10/08 00:42:08;;;;;;;1.70;1.20;;;16.40;99.90;;;;;;7391498;19;20149;-82
2023/10/08 00:44:41;;;;;;;1.50;0.98;;;16.50;99.90;;;;;;7388742;19;20131;-81
2023/10/08 00:47:07;;;;;;;1.52;0.82;;;16.50;99.90;;;;;;7395205;19;20552;-81
2023/10/08 00:57:26;;;;;;;1.48;1.00;;;16.60;99.90;;;;;;7388750;19;20158;-81
2023/10/08 00:59:59;;;;;;;0.70;0.70;;;16.40;99.90;;;;;;7387916;19;20127;-81
2023/10/08 01:02:30;;;;;;;1.08;0.82;;;16.40;99.90;;;;;;7392066;19;20156;-82
2023/10/08 01:04:56;;;;;;;2.05;1.20;;;16.40;99.90;;;;;;7389692;19;20169;-81
2023/10/08 01:07:23;;;;;;;4.28;1.30;;;16.40;99.90;;;;;;7390775;19;20206;-82
2023/10/08 01:09:59;;;;;;;1.77;0.90;;;16.50;99.90;;;;;;7391362;19;20122;-81
2023/10/08 01:12:34;;;;;;;1.60;1.23;;;16.70;99.90;;;;;;7391656;19;20161;-83
2023/10/08 01:15:16;;;;;;;1.85;1.20;;;16.70;99.90;;;;;;7390105;19;20143;-82
2023/10/08 01:17:51;;;;;;;3.83;1.50;;;16.70;99.90;;;;;;7391849;19;20181;-82
2023/10/08 01:20:49;;;;;;;1.42;1.17;;;16.80;99.90;;;;;;7392817;19;20134;-82
2023/10/08 01:23:16;;;;;;;2.63;1.25;;;16.70;99.90;;;;;;7389792;19;20184;-83
2023/10/08 01:25:43;;;;;;;1.52;1.08;;;16.70;99.90;;;;;;7391373;19;20157;-81
2023/10/08 01:28:18;;;;;;;1.25;0.95;;;16.80;99.90;;;;;;7390574;19;20143;-83
2023/10/08 01:30:47;;;;;;;2.65;1.30;;;16.90;99.90;;;;;;7388819;19;20146;-81
2023/10/08 01:33:16;;;;;;;2.97;1.08;;;16.90;99.90;;;;;;7390274;19;20161;-80
2023/10/08 01:35:42;;;;;;;1.80;0.82;;;16.70;99.90;;;;;;7390427;19;20568;-82
2023/10/08 01:38:13;;;;;;;1.77;1.20;;;16.70;99.90;;;;;;7389375;19;20233;-83
2023/10/08 01:40:43;;;;;;;1.92;1.15;;;16.80;99.90;;;;;;7389629;19;20219;-82
2023/10/08 01:43:10;;;;;;;2.05;1.30;;;16.70;99.90;;;;;;7391130;19;20611;-82
2023/10/08 01:45:40;;;;;;;2.33;1.13;;;16.80;99.90;;;;;;7388710;19;20138;-81
2023/10/08 01:48:09;;;;;;;1.77;1.15;;;16.80;99.90;;;;;;7387822;19;20154;-81
2023/10/08 01:50:36;;;;;;;1.27;0.90;;;16.70;99.90;;;;;;7390387;19;20529;-82
2023/10/08 01:53:01;;;;;;;1.08;0.95;;;16.60;99.90;;;;;;7392255;19;20157;-81
2023/10/08 01:55:27;;;;;;;1.08;0.75;;;16.40;99.90;;;;;;7391298;19;20138;-81
2023/10/08 01:57:56;;;;;;;1.45;1.15;;;16.30;99.90;;;;;;7390029;19;20191;-81
2023/10/08 02:00:23;;;;;;;2.25;1.20;;;16.40;99.90;;;;;;7390358;19;20623;-81
2023/10/08 02:02:53;;;;;;;1.77;1.10;;;16.50;99.90;;;;;;7388676;19;20142;-82
2023/10/08 02:05:19;;;;;;;1.70;1.38;;;16.60;99.90;;;;;;7389186;19;20154;-81
2023/10/08 02:07:45;;;;;;;3.22;1.38;;;16.60;99.90;;;;;;7390368;19;20596;-82
2023/10/08 02:10:14;;;;;;;2.38;1.48;;;16.60;99.90;;;;;;7388941;19;20227;-82
2023/10/08 02:12:40;;;;;;;1.38;1.05;;;16.50;99.90;;;;;;7391082;19;20145;-82
2023/10/08 02:15:08;;;;;;;1.95;1.08;;;16.50;99.90;;;;;;7389610;19;20147;-81
2023/10/08 02:17:34;;;;;;;1.95;1.23;;;16.50;99.90;;;;;;7390451;19;20145;-82
2023/10/08 02:20:04;;;;;;;2.42;1.23;;;16.50;99.90;;;;;;7385300;19;20178;-81
2023/10/08 02:22:31;;;;;;;1.80;1.48;;;16.40;99.90;;;;;;7390305;19;20131;-81
2023/10/08 02:25:01;;;;;;;4.00;1.35;;;16.30;99.90;;;;;;7388069;19;20141;-82
2023/10/08 02:27:27;;;;;;;2.33;1.20;;;16.10;99.90;;;;;;7389573;19;20141;-81
2023/10/08 02:29:54;;;;;;;2.10;1.23;;;16.20;99.90;;;;;;7391747;19;20134;-82
2023/10/08 02:32:22;;;;;;;1.92;1.33;;;16.00;99.90;;;;;;7388982;19;20138;-80
2023/10/08 02:34:50;;;;;;;2.25;1.27;;;15.70;99.90;;;;;;7385850;19;20135;-80
2023/10/08 02:37:16;;;;;;;2.15;0.90;;;15.80;99.90;;;;;;7388552;19;20170;-80
2023/10/08 02:39:42;;;;;;;1.45;0.90;;;15.70;99.90;;;;;;7387471;19;20139;-82
2023/10/08 02:42:10;;;;;;;1.23;0.80;;;15.70;99.90;;;;;;7389948;19;20158;-82
2023/10/08 02:44:41;;;;;;;1.27;1.00;;;15.60;99.90;;;;;;7387467;19;20146;-81
2023/10/08 02:47:11;;;;;;;2.28;1.15;;;15.60;99.90;;;;;;7388089;19;20493;-81
2023/10/08 02:49:40;;;;;;;2.00;1.25;;;15.70;99.90;;;;;;7384630;19;20143;-82
2023/10/08 02:52:08;;;;;;;1.63;0.80;;;15.70;99.90;;;;;;7388120;19;20603;-82
2023/10/08 02:54:36;;;;;;;1.48;0.95;;;15.90;99.90;;;;;;7388183;19;20157;-81
2023/10/08 02:57:10;;;;;;;2.40;1.23;;;16.10;99.90;;;;;;7390138;19;20135;-81
2023/10/08 02:59:42;;;;;;;1.33;0.90;;;16.10;99.90;;;;;;7384602;19;20198;-82
2023/10/08 03:02:18;;;;;;;1.77;1.30;;;16.10;99.90;;;;;;7389270;19;20866;-82
2023/10/08 03:04:45;;;;;;;1.48;0.73;;;16.20;99.90;;;;;;7388828;19;20142;-82
2023/10/08 03:07:32;;;;;;;1.92;0.90;;;16.10;99.90;;;;;;7388396;19;20507;-81
2023/10/08 03:10:18;;;;;;;1.58;1.00;;;15.90;99.90;;;;;;7384431;19;20138;-82
2023/10/08 03:12:47;;;;;;;1.67;0.80;;;16.10;99.90;;;;;;7383608;19;20163;-80
2023/10/08 03:15:27;;;;;;;1.38;0.85;;;16.00;99.90;;;;;;7387867;19;20157;-81
2023/10/08 03:17:53;;;;;;;2.38;1.58;;;16.00;99.90;;;;;;7388465;19;20579;-81
2023/10/08 03:20:38;;;;;;;1.90;1.00;;;15.90;99.90;;;;;;7389047;19;20143;-80
2023/10/08 03:23:23;;;;;;;1.90;1.20;;;16.00;99.90;;;;;;7393683;19;20147;-81
2023/10/08 03:25:59;;;;;;;1.80;0.98;;;15.80;99.90;;;;;;7393318;19;20163;-79
2023/10/08 03:28:25;;;;;;;2.40;1.10;;;15.80;99.90;;;;;;7395493;19;20138;-81
2023/10/08 03:31:04;;;;;;;1.38;0.82;;;15.80;99.90;;;;;;7393328;19;20139;-82
2023/10/08 03:33:37;;;;;;;1.45;0.88;;;15.80;99.90;;;;;;7393690;19;20134;-81
2023/10/08 03:36:10;;;;;;;1.35;0.95;;;15.80;99.90;;;;;;7391412;19;20138;-81
2023/10/08 03:38:50;;;;;;;1.52;0.90;;;15.90;99.90;;;;;;7394173;19;20138;-81
2023/10/08 03:41:30;;;;;;;1.58;0.75;;;15.70;99.90;;;;;;7392347;19;20201;-81
2023/10/08 03:44:05;;;;;;;1.17;0.90;;;15.80;99.90;;;;;;7394237;19;20130;-81
2023/10/08 03:46:39;;;;;;;1.00;0.70;;;16.00;99.90;;;;;;7395970;19;20559;-81
2023/10/08 03:49:24;;;;;;;0.95;0.65;;;16.00;99.90;;;;;;7391564;19;20161;-82
2023/10/08 03:51:51;;;;;;;2.60;1.33;;;16.00;99.90;;;;;;7391517;19;20243;-82
2023/10/08 03:54:29;;;;;;;1.92;1.00;;;16.10;99.90;;;;;;7391994;19;20180;-82
2023/10/08 03:56:56;;;;;;;1.63;0.85;;;16.10;99.90;;;;;;7395917;19;20134;-80
2023/10/08 03:59:30;;;;;;;0.98;0.88;;;16.10;99.90;;;;;;7389432;19;20661;-81
2023/10/08 04:02:22;;;;;;;1.55;0.98;;;16.20;99.90;;;;;;7392055;19;20134;-81
2023/10/08 04:04:57;;;;;;;1.10;0.98;;;16.10;99.90;;;;;;7389946;19;20147;-81
2023/10/08 04:07:28;;;;;;;1.17;0.85;;;16.10;99.90;;;;;;7391223;19;20647;-80
2023/10/08 04:12:43;;;;;;;1.20;0.82;;;15.70;99.90;;;;;;7393470;19;20567;-81
2023/10/08 04:15:12;;;;;;;2.22;1.02;;;15.80;99.90;;;;;;7388162;19;20138;-80
2023/10/08 04:17:43;;;;;;;1.55;0.90;;;15.80;99.90;;;;;;7392480;19;20151;-81
2023/10/08 04:23:13;;;;;;;2.60;1.08;;;15.70;99.90;;;;;;7391544;19;20162;-81
2023/10/08 04:25:41;;;;;;;1.70;0.98;;;15.80;99.90;;;;;;7393311;19;20165;-81
2023/10/08 04:28:13;;;;;;;1.73;0.85;;;15.80;99.90;;;;;;7392096;19;20154;-83
2023/10/08 04:30:41;;;;;;;1.50;1.13;;;15.70;99.90;;;;;;7392537;19;20154;-80
2023/10/08 04:33:10;;;;;;;2.17;0.88;;;15.80;99.90;;;;;;7387341;19;20146;-81
2023/10/08 04:35:47;;;;;;;1.30;0.85;;;15.80;99.90;;;;;;7390000;19;20146;-81
2023/10/08 04:38:23;;;;;;;1.15;1.05;;;15.80;99.90;;;;;;7389262;19;20608;-80
2023/10/08 04:40:51;;;;;;;3.03;0.95;;;15.70;99.90;;;;;;7390063;19;20588;-80
2023/10/08 04:43:30;;;;;;;2.55;1.08;;;15.80;99.90;;;;;;7391154;19;20135;-81
2023/10/08 04:46:08;;;;;;;1.35;0.90;;;15.60;99.90;;;;;;7391171;19;20126;-80
2023/10/08 04:48:36;;;;;;;1.25;1.13;;;15.70;99.90;;;;;;7393842;19;20232;-80
2023/10/08 04:51:03;;;;;;;1.48;0.98;;;15.70;99.90;;;;;;7389555;19;20149;-80
2023/10/08 04:53:40;;;;;;;3.30;1.30;;;15.70;99.90;;;;;;7391783;19;20135;-80
2023/10/08 04:56:13;;;;;;;1.20;0.80;;;15.80;99.90;;;;;;7392110;19;20202;-80
2023/10/08 04:58:40;;;;;;;2.47;0.93;;;16.00;99.90;;;;;;7392778;19;20135;-81
2023/10/08 05:01:18;;;;;;;1.25;0.73;;;15.90;99.90;;;;;;7389352;19;20154;-80
2023/10/08 05:06:50;;;;;;;1.92;1.17;;;15.70;99.90;;;;;;7386719;19;20183;-80
2023/10/08 05:17:03;;;;;;;1.75;0.95;;;15.60;99.90;;;;;;7391466;19;20145;-81
2023/10/08 05:30:16;;;;;;;1.15;1.00;;;15.60;99.90;;;;;;7389058;19;20158;-80
2023/10/08 05:38:38;;;;;;;1.85;1.10;;;15.60;99.90;;;;;;7391611;19;20466;-80
2023/10/08 05:41:04;;;;;;;2.83;1.00;;;15.60;99.90;;;;;;7391831;19;20165;-81
2023/10/08 05:59:38;;;;;;;2.65;1.10;;;15.80;99.90;;;;;;7385222;19;20135;-79
2023/10/08 06:13:06;;;;;;;4.35;1.73;;;15.80;99.90;;;;;;7389302;19;20150;-81
2023/10/08 06:18:32;;;;;;;1.95;1.40;;;15.60;99.90;;;;;;7391406;19;20165;-81
2023/10/08 06:21:01;;;;;;;2.17;1.25;;;15.20;99.90;;;;;;7390079;19;20576;-81
2023/10/08 06:23:31;;;;;;;1.98;1.33;;;15.40;99.90;;;;;;7390104;19;20142;-80
2023/10/08 06:25:58;;;;;;;1.27;1.05;;;15.50;99.90;;;;;;7389290;19;20131;-81
2023/10/08 06:28:26;;;;;;;1.73;0.90;;;15.40;99.90;;;;;;7389749;19;20170;-81
2023/10/08 06:30:54;;;;;;;1.65;1.05;;;15.60;99.90;;;;;;7389491;19;20142;-80
2023/10/08 06:33:20;;;;;;;1.65;1.08;;;15.50;99.90;;;;;;7390800;19;20139;-80
2023/10/08 06:38:48;;;;;;;2.58;1.23;;;15.60;99.90;;;;;;7387293;19;20642;-78
2023/10/08 06:43:48;;;;;;;3.08;1.55;;;15.70;99.90;;;;;;7389913;19;20134;-81
2023/10/08 06:46:14;;;;;;;1.30;0.93;;;15.60;99.90;;;;;;7389278;19;20147;-80
2023/10/08 06:48:45;;;;;;;3.88;1.30;;;15.60;99.90;;;;;;7390069;19;20147;-80
2023/10/08 06:51:17;;;;;;;2.97;1.42;;;15.60;99.90;;;;;;7390753;19;20174;-80
2023/10/08 06:53:45;;;;;;;2.13;1.25;;;15.70;99.90;;;;;;7390190;19;20154;-81
2023/10/08 06:56:15;;;;;;;2.03;1.30;;;15.70;99.90;;;;;;7391773;19;20173;-82
2023/10/08 06:58:48;;;;;;;1.13;0.90;;;15.80;99.90;;;;;;7393949;19;20596;-81
2023/10/08 07:01:24;;;;;;;2.25;1.08;;;15.70;99.90;;;;;;7396095;19;20151;-83
2023/10/08 07:04:03;;;;;;;1.40;0.80;;;15.80;99.90;;;;;;7393833;19;20137;-81
2023/10/08 07:06:33;;;;;;;2.15;1.30;;;15.90;99.90;;;;;;7394828;19;20230;-81
2023/10/08 07:09:04;;;;;;;0.93;0.90;;;15.90;99.90;;;;;;7395736;19;20185;-81
2023/10/08 07:11:34;;;;;;;1.15;0.88;;;16.00;99.90;;;;;;7396306;19;20596;-79
2023/10/08 07:14:04;;;;;;;2.60;1.23;;;16.00;99.90;;;;;;7395264;19;20230;-81
2023/10/08 07:16:34;;;;;;;2.78;1.52;;;16.00;99.90;;;;;;7396505;19;20599;-81
2023/10/08 07:19:17;;;;;;;3.22;1.33;;;16.00;99.90;;;;;;7396235;19;20670;-80
2023/10/08 07:21:44;;;;;;;2.60;1.50;;;15.90;99.90;;;;;;7396876;19;20150;-80
2023/10/08 07:24:17;;;;;;;1.50;1.13;;;15.90;99.90;;;;;;7394427;19;20143;-80
2023/10/08 07:26:47;;;;;;;1.95;1.45;;;15.90;99.90;;;;;;7395066;19;20588;-80
2023/10/08 07:29:17;;;;;;;1.67;1.25;;;15.90;99.90;;;;;;7397062;19;20146;-80
2023/10/08 07:31:52;;;;;;;2.97;1.45;;;16.20;99.90;;;;;;7395604;19;20659;-80
2023/10/08 07:34:25;;;;;;;1.67;1.13;;;16.30;99.90;;;;;;7394520;19;20141;-80
2023/10/08 07:36:52;;;;;;;2.03;0.90;;;16.50;99.90;;;;;;7395280;19;20143;-80
2023/10/08 07:41:58;;;;;;;1.70;1.10;;;16.50;99.90;;;;;;7393311;19;20217;-80
2023/10/08 07:44:30;;;;;;;1.70;1.13;;;16.50;99.90;;;;;;7394531;19;20567;-85
2023/10/08 07:46:56;;;;;;;2.80;1.20;;;16.50;99.90;;;;;;7391939;19;20158;-81
2023/10/08 07:49:25;;;;;;;2.10;1.08;;;16.60;99.90;;;;;;7392301;19;20231;-79
2023/10/08 07:51:52;;;;;;;2.97;1.27;;;16.60;99.90;;;;;;7394175;19;20155;-80
2023/10/08 07:54:20;;;;;;;2.35;1.48;;;16.60;99.90;;;;;;7396173;19;20550;-80
2023/10/08 07:56:47;;;;;;;1.42;1.02;;;16.70;99.90;;;;;;7395210;19;20146;-80
2023/10/08 07:59:16;;;;;;;1.60;1.05;;;16.70;99.90;;;;;;7390024;19;20170;-78
2023/10/08 08:01:43;;;;;;;2.38;0.82;;;16.90;99.90;;;;;;7393439;19;20155;-79
2023/10/08 08:04:22;;;;;;;2.70;1.35;;;17.00;99.90;;;;;;7392514;19;20127;-77
2023/10/08 08:06:50;;;;;;;2.63;1.38;;;17.20;99.90;;;;;;7389398;19;20241;-81
2023/10/08 08:09:19;;;;;;;2.15;1.10;;;17.20;99.90;;;;;;7393350;19;20213;-79
2023/10/08 08:11:46;;;;;;;2.50;1.60;;;17.20;99.90;;;;;;7391182;19;20158;-80
2023/10/08 08:14:16;;;;;;;1.73;0.90;;;17.20;99.90;;;;;;7392202;19;20142;-79
2023/10/08 08:16:48;;;;;;;2.42;1.30;;;17.30;99.90;;;;;;7392904;19;20218;-81
2023/10/08 08:19:24;;;;;;;3.35;1.60;;;17.30;99.90;;;;;;7392782;19;20146;-80
2023/10/08 08:21:52;;;;;;;2.33;1.00;;;17.30;99.90;;;;;;7393520;19;20153;-79
2023/10/08 08:24:28;;;;;;;1.80;1.08;;;17.20;99.90;;;;;;7392985;19;21023;-76
2023/10/08 08:27:23;;;;;;;2.47;1.73;;;17.20;99.90;;;;;;7394644;19;20168;-77
2023/10/08 08:29:55;;;;;;;2.60;1.52;;;17.10;99.90;;;;;;7392573;19;20147;-79
2023/10/08 08:32:23;;;;;;;2.80;1.35;;;17.00;99.90;;;;;;7395446;19;20708;-77
2023/10/08 08:34:52;;;;;;;2.50;1.23;;;17.10;99.90;;;;;;7392798;19;20238;-82
2023/10/08 08:37:18;;;;;;;3.35;1.48;;;17.20;99.90;;;;;;7395607;19;20155;-82
2023/10/08 08:39:45;;;;;;;2.35;1.30;;;17.30;99.90;;;;;;7391123;19;20174;-83
2023/10/08 08:42:11;;;;;;;3.13;1.50;;;17.30;99.90;;;;;;7393254;19;20162;-82
2023/10/08 08:44:45;;;;;;;11.63;6.38;;;17.30;99.90;;;;;;7394633;19;20162;-82
2023/10/08 08:47:17;;;;;;;6.43;2.88;;;17.30;99.90;;;;;;7391967;19;20583;-81
2023/10/08 08:49:48;;;;;;;2.60;1.33;;;17.50;99.90;;;;;;7394168;19;20143;-84
2023/10/08 08:52:14;;;;;;;4.50;2.92;;;17.60;99.90;;;;;;7394639;19;20702;-83
2023/10/08 08:54:45;;;;;;;3.05;1.83;;;17.70;99.90;;;;;;7394538;19;20162;-83
2023/10/08 08:57:14;;;;;;;1.27;1.10;;;17.80;99.90;;;;;;7393181;19;20162;-83
2023/10/08 08:59:54;;;;;;;1.55;1.00;;;17.90;99.90;;;;;;7392511;19;20142;-83
2023/10/08 09:02:20;;;;;;;2.40;1.30;;;17.90;99.90;;;;;;7393390;19;20147;-83
2023/10/08 09:04:48;;;;;;;2.42;1.05;;;17.70;99.90;;;;;;7394949;19;20135;-84
2023/10/08 09:07:14;;;;;;;2.20;1.23;;;17.60;99.90;;;;;;7393656;19;20637;-83
2023/10/08 09:09:40;;;;;;;2.47;1.13;;;17.70;99.90;;;;;;7393289;19;20210;-82
2023/10/08 09:12:10;;;;;;;2.17;1.52;;;17.90;99.90;;;;;;7392117;19;20154;-83
2023/10/08 09:14:37;;;;;;;2.30;1.33;;;18.10;99.90;;;;;;7392913;19;20613;-83
2023/10/08 09:17:05;;;;;;;2.30;1.23;;;18.30;99.90;;;;;;7393181;19;20158;-84
2023/10/08 09:19:38;;;;;;;2.80;1.15;;;18.40;99.90;;;;;;7389342;19;20131;-82
2023/10/08 09:22:07;;;;;;;2.65;1.08;;;18.80;99.90;;;;;;7394848;19;20147;-84
2023/10/08 09:24:37;;;;;;;1.30;0.93;;;19.10;99.90;;;;;;7391672;19;20245;-84
2023/10/08 09:27:04;;;;;;;1.17;1.08;;;19.50;99.90;;;;;;7392919;19;20154;-85
2023/10/08 09:29:31;;;;;;;0.93;0.80;;;19.80;99.90;;;;;;7392807;19;20149;-83
2023/10/08 09:31:58;;;;;;;1.35;0.80;;;20.00;99.90;;;;;;7391539;19;20214;-84
2023/10/08 09:34:30;;;;;;;3.05;1.00;;;20.10;99.90;;;;;;7392291;19;20213;-83
2023/10/08 09:36:59;;;;;;;1.67;0.95;;;20.10;99.90;;;;;;7391446;19;20246;-83
2023/10/08 09:39:28;;;;;;;1.83;1.15;;;20.10;99.90;;;;;;7389748;19;20171;-83
2023/10/08 09:41:55;;;;;;;1.17;0.70;;;20.20;99.90;;;;;;7392620;19;20135;-84
2023/10/08 09:44:25;;;;;;;1.25;1.08;;;20.30;99.90;;;;;;7394050;19;20135;-85
2023/10/08 09:47:08;;;;;;;1.42;1.02;;;20.40;99.90;;;;;;7388959;19;20142;-80
2023/10/08 09:50:01;;;;;;;1.38;0.98;;;20.50;99.90;;;;;;7392152;19;20166;-81
2023/10/08 09:52:36;;;;;;;1.30;0.82;;;20.50;99.90;;;;;;7391073;19;20611;-82
2023/10/08 09:55:11;;;;;;;1.48;1.05;;;20.50;99.90;;;;;;7389641;19;20583;-82
2023/10/08 09:57:37;;;;;;;1.77;0.82;;;20.50;99.90;;;;;;7389830;19;20152;-81
2023/10/08 10:00:15;;;;;;;1.77;1.20;;;20.50;99.90;;;;;;7389312;19;20475;-80
2023/10/08 10:02:44;;;;;;;1.20;0.80;;;20.50;99.90;;;;;;7393422;19;20470;-79
2023/10/08 10:05:11;;;;;;;1.23;0.75;;;20.60;99.90;;;;;;7390429;19;20175;-83
2023/10/08 10:07:43;;;;;;;1.58;0.70;;;20.50;99.90;;;;;;7391793;19;20178;-79
2023/10/08 10:10:30;;;;;;;2.13;0.82;;;20.50;99.90;;;;;;7389957;19;20626;-77
2023/10/08 10:13:09;;;;;;;1.65;0.90;;;20.60;99.90;;;;;;7387692;19;20586;-77
2023/10/08 10:15:39;;;;;;;2.35;1.48;;;20.70;99.90;;;;;;7390704;19;20572;-80
2023/10/08 10:18:18;;;;;;;3.65;1.80;;;20.70;99.90;;;;;;7391494;19;20151;-78
2023/10/08 10:21:02;;;;;;;2.33;1.20;;;20.70;99.90;;;;;;7392242;19;20134;-81
2023/10/08 10:23:56;;;;;;;2.95;1.42;;;20.70;99.90;;;;;;7391309;19;20153;-79
2023/10/08 10:26:26;;;;;;;3.22;1.85;;;20.70;99.90;;;;;;7390051;19;20150;-83
2023/10/08 10:29:10;;;;;;;2.05;1.10;;;20.70;99.90;;;;;;7388899;19;20540;-84
2023/10/08 10:31:47;;;;;;;2.35;1.35;;;20.70;99.90;;;;;;7388004;19;20546;-88
2023/10/08 10:34:16;;;;;;;2.28;1.00;;;20.80;99.90;;;;;;7389921;19;20143;-87
2023/10/08 10:36:44;;;;;;;1.58;1.10;;;20.90;99.90;;;;;;7392492;19;20160;-85
2023/10/08 10:39:16;;;;;;;1.83;1.15;;;20.90;99.90;;;;;;7389752;19;20206;-86
2023/10/08 10:41:56;;;;;;;1.83;1.30;;;20.90;99.90;;;;;;7392018;19;20509;-86
2023/10/08 10:44:24;;;;;;;2.25;1.70;;;20.80;99.90;;;;;;7390456;19;20223;-88
2023/10/08 10:49:36;;;;;;;2.58;1.40;;;20.90;99.90;;;;;;7393956;19;20131;-88
2023/10/08 10:52:05;;;;;;;2.10;1.40;;;20.90;99.90;;;;;;7392341;19;20477;-89
2023/10/08 10:54:36;;;;;;;2.42;1.08;;;21.00;99.90;;;;;;7392061;19;20135;-84
2023/10/08 10:57:17;;;;;;;2.00;1.17;;;21.20;99.90;;;;;;7391699;19;20548;-87
2023/10/08 10:59:53;;;;;;;1.77;0.90;;;21.10;99.90;;;;;;7391562;19;20151;-84
2023/10/08 11:02:42;;;;;;;2.42;1.52;;;21.00;99.90;;;;;;7393296;19;20162;-88
2023/10/08 11:05:19;;;;;;;2.85;1.40;;;21.00;99.90;;;;;;7392119;19;20170;-87
2023/10/08 11:07:48;;;;;;;1.52;0.80;;;20.90;99.90;;;;;;7393025;19;20146;-88
2023/10/08 11:10:15;;;;;;;4.32;0.98;;;20.90;99.90;;;;;;7392322;19;20146;-87
2023/10/08 11:12:47;;;;;;;1.83;1.27;;;21.00;99.90;;;;;;7391369;19;20146;-85
2023/10/08 11:15:17;;;;;;;1.52;0.93;;;21.20;99.90;;;;;;7390505;19;20152;-88
2023/10/08 11:17:44;;;;;;;2.08;1.02;;;21.10;99.90;;;;;;7391662;19;20226;-82
2023/10/08 11:20:24;;;;;;;1.77;1.25;;;21.20;99.90;;;;;;7386789;19;20497;-86
2023/10/08 11:22:53;;;;;;;1.98;1.10;;;21.20;99.90;;;;;;7390643;19;20233;-87
2023/10/08 11:25:27;;;;;;;1.60;1.27;;;21.20;99.90;;;;;;7389421;19;20568;-86
2023/10/08 11:28:08;;;;;;;2.10;1.20;;;21.20;99.90;;;;;;7389919;19;20920;-77
2023/10/08 11:30:36;;;;;;;2.45;1.17;;;21.10;99.90;;;;;;7388349;19;20197;-79
2023/10/08 11:33:01;;;;;;;2.78;1.55;;;21.10;99.90;;;;;;7389456;19;20134;-79
2023/10/08 11:35:28;;;;;;;1.67;1.10;;;21.20;99.90;;;;;;7390524;19;20150;-80
2023/10/08 11:38:00;;;;;;;2.05;0.95;;;21.10;99.90;;;;;;7387315;19;20138;-80
2023/10/08 11:40:40;;;;;;;2.05;1.50;;;21.30;99.90;;;;;;7386181;19;20151;-79
2023/10/08 11:43:15;;;;;;;2.33;1.00;;;21.50;99.90;;;;;;7395235;19;20161;-79
2023/10/08 11:45:48;;;;;;;2.88;1.52;;;21.60;99.90;;;;;;7394047;19;20603;-79
2023/10/08 11:48:25;;;;;;;1.15;1.05;;;21.70;99.90;;;;;;7394159;19;20172;-81
2023/10/08 11:50:52;;;;;;;2.42;1.40;;;21.70;99.90;;;;;;7394276;19;20134;-83
2023/10/08 11:53:19;;;;;;;2.88;1.65;;;21.60;99.90;;;;;;7395363;19;20142;-82
2023/10/08 11:55:47;;;;;;;2.50;1.23;;;21.60;99.90;;;;;;7394987;19;20157;-82
2023/10/08 11:58:17;;;;;;;2.45;1.60;;;21.60;99.90;;;;;;7395842;19;20135;-81
2023/10/08 12:00:44;;;;;;;2.85;1.05;;;21.70;99.90;;;;;;7394654;19;20506;-78
2023/10/08 12:03:11;;;;;;;4.15;1.73;;;21.60;99.90;;;;;;7393655;19;20167;-80
2023/10/08 12:05:46;;;;;;;1.50;1.08;;;21.70;99.90;;;;;;7393513;19;20162;-81
2023/10/08 12:08:16;;;;;;;1.73;1.05;;;21.90;99.90;;;;;;7395993;19;20166;-81
2023/10/08 12:10:43;;;;;;;2.85;1.85;;;22.20;99.90;;;;;;7394808;19;20146;-80
2023/10/08 12:13:10;;;;;;;1.92;1.40;;;22.40;99.90;;;;;;7395862;19;20147;-80
2023/10/08 12:15:40;;;;;;;1.95;1.17;;;22.60;99.90;;;;;;7394235;19;20141;-80
2023/10/08 12:18:24;;;;;;;1.67;1.10;;;22.70;99.90;;;;;;7395123;19;20151;-79
2023/10/08 12:20:50;;;;;;;1.58;0.85;;;22.90;99.90;;;;;;7395636;19;20130;-80
2023/10/08 12:23:37;;;;;;;1.67;1.25;;;23.10;99.90;;;;;;7394177;19;20139;-84
2023/10/08 12:26:03;;;;;;;1.55;1.15;;;23.20;99.90;;;;;;7394512;19;20142;-81
2023/10/08 12:28:29;;;;;;;2.40;1.15;;;23.40;99.90;;;;;;7397182;19;20130;-79
2023/10/08 12:30:58;;;;;;;2.22;1.00;;;23.40;99.90;;;;;;7393106;19;20170;-82
2023/10/08 12:33:24;;;;;;;1.88;1.08;;;23.50;99.90;;;;;;7393922;19;20135;-85
2023/10/08 12:35:55;;;;;;;1.27;1.10;;;23.60;99.90;;;;;;7395102;19;20134;-80
2023/10/08 12:38:27;;;;;;;2.40;1.10;;;23.70;99.90;;;;;;7394136;19;20502;-80
2023/10/08 12:40:54;;;;;;;2.65;1.48;;;23.80;99.90;;;;;;7395068;19;20487;-80
2023/10/08 12:43:20;;;;;;;2.15;1.58;;;23.80;99.90;;;;;;7395095;19;20143;-80
2023/10/08 12:45:53;;;;;;;1.38;0.90;;;23.80;99.90;;;;;;7393984;19;20142;-81
2023/10/08 12:48:21;;;;;;;1.65;1.00;;;23.80;99.90;;;;;;7395914;19;20164;-80
2023/10/08 12:50:56;;;;;;;2.33;1.25;;;23.80;99.90;;;;;;7393756;19;20496;-79
2023/10/08 12:53:27;;;;;;;2.97;1.10;;;23.70;99.90;;;;;;7392007;19;20514;-79
2023/10/08 12:55:54;;;;;;;2.22;1.20;;;23.80;99.90;;;;;;7393565;19;20154;-82
2023/10/08 12:58:25;;;;;;;1.88;1.30;;;23.80;99.90;;;;;;7394485;19;20154;-78
2023/10/08 13:00:58;;;;;;;2.55;1.05;;;23.90;99.90;;;;;;7394103;19;20122;-78
2023/10/08 13:03:25;;;;;;;1.90;1.17;;;23.90;99.90;;;;;;7393501;19;20146;-79
2023/10/08 13:05:52;;;;;;;1.85;1.23;;;23.90;99.90;;;;;;7391499;19;20643;-80
2023/10/08 13:08:21;;;;;;;1.67;1.20;;;24.00;99.90;;;;;;7394718;19;20926;-78
2023/10/08 13:10:47;;;;;;;2.25;1.25;;;24.00;99.90;;;;;;7393506;19;20165;-80
2023/10/08 13:13:13;;;;;;;2.40;1.35;;;24.10;99.90;;;;;;7393235;19;20153;-80
2023/10/08 13:15:41;;;;;;;1.77;1.20;;;24.20;99.90;;;;;;7392560;19;20138;-82
2023/10/08 13:18:08;;;;;;;1.98;1.23;;;24.20;99.40;;;;;;7393172;19;20146;-82
2023/10/08 13:20:34;;;;;;;2.10;1.17;;;24.10;99.20;;;;;;7390444;19;20147;-78
2023/10/08 13:23:09;;;;;;;3.85;1.27;;;24.10;98.50;;;;;;7392977;19;20135;-82
2023/10/08 13:25:39;;;;;;;1.92;1.33;;;24.20;97.70;;;;;;7393904;19;20153;-81
2023/10/08 13:28:07;;;;;;;2.10;0.90;;;24.20;96.60;;;;;;7392795;19;20206;-80
2023/10/08 13:30:33;;;;;;;1.80;1.00;;;24.30;96.70;;;;;;7394632;19;20492;-77
2023/10/08 13:32:59;;;;;;;1.25;0.80;;;24.20;96.60;;;;;;7393675;19;20146;-81
2023/10/08 13:35:25;;;;;;;1.70;1.13;;;24.20;96.40;;;;;;7393181;19;20134;-79
2023/10/08 13:37:52;;;;;;;1.98;1.55;;;24.30;95.90;;;;;;7392735;19;20130;-79
2023/10/08 13:40:18;;;;;;;1.67;1.10;;;24.30;95.80;;;;;;7390886;19;20147;-79
2023/10/08 13:42:44;;;;;;;2.40;1.30;;;24.30;96.90;;;;;;7393456;19;20246;-80
2023/10/08 13:45:16;;;;;;;3.13;1.48;;;24.30;96.40;;;;;;7392466;19;20145;-81
2023/10/08 13:47:42;;;;;;;3.65;1.10;;;24.20;95.90;;;;;;7392432;19;20581;-80
2023/10/08 13:50:11;;;;;;;1.52;0.98;;;24.10;95.90;;;;;;7392334;19;20424;-79
2023/10/08 13:52:38;;;;;;;1.67;1.00;;;24.10;95.70;;;;;;7393955;19;20157;-79
2023/10/08 13:55:13;;;;;;;4.13;1.27;;;24.10;95.50;;;;;;7393043;19;20145;-79
2023/10/08 13:57:41;;;;;;;1.95;1.10;;;23.90;96.40;;;;;;7393129;19;20670;-79
2023/10/08 14:00:15;;;;;;;1.95;1.10;;;23.90;95.90;;;;;;7389044;19;20151;-81
2023/10/08 14:02:44;;;;;;;1.98;1.08;;;23.90;96.00;;;;;;7391620;19;20163;-79
2023/10/08 14:05:15;;;;;;;2.08;1.27;;;24.00;95.90;;;;;;7389488;19;20497;-80
2023/10/08 14:07:44;;;;;;;1.52;0.98;;;23.90;95.90;;;;;;7391951;19;20155;-80
2023/10/08 14:10:18;;;;;;;1.75;0.95;;;23.90;95.80;;;;;;7391220;19;20154;-80
2023/10/08 14:12:48;;;;;;;2.78;1.20;;;23.90;95.60;;;;;;7392728;19;20158;-79
2023/10/08 14:15:19;;;;;;;2.83;1.20;;;23.90;95.80;;;;;;7390729;19;20147;-79
2023/10/08 14:17:48;;;;;;;1.88;1.05;;;23.90;95.70;;;;;;7389777;19;20491;-79
2023/10/08 14:20:21;;;;;;;1.70;1.05;;;23.90;95.70;;;;;;7386718;19;20290;-78
2023/10/08 14:22:57;;;;;;;1.45;1.10;;;23.90;95.70;;;;;;7391415;19;20138;-78
2023/10/08 14:25:27;;;;;;;2.53;1.30;;;23.90;95.60;;;;;;7388568;19;20165;-78
2023/10/08 14:27:53;;;;;;;0.93;0.75;;;23.70;96.10;;;;;;7389614;19;20792;-77
2023/10/08 14:30:21;;;;;;;1.52;1.00;;;23.60;96.10;;;;;;7389261;19;20199;-78